This is the latest recevied weather packets stored in our database for station/object XW7RMR. If no packets are shown the sender has not sent any weather packets the latest 10 day(s).
| Time | Temp. | Humidity | Pressure | Rain* | Wind** | Luminosity | Snow |
|---|---|---|---|---|---|---|---|
| 1777759925 | 22.22° C | 59% | 1011.6 hPa | 0 mm | - | 605 W/m² | - |
| 1777759621 | 21.11° C | 59% | 1011.8 hPa | 0 mm | - | 667 W/m² | - |
| 1777759317 | 20° C | 63% | 1011.8 hPa | 0 mm | - | 624 W/m² | - |
| 1777759014 | 21.11° C | 60% | 1012 hPa | 0 mm | - | 619 W/m² | - |
| 1777758711 | 20° C | 62% | 1011.9 hPa | 0 mm | - | 554 W/m² | - |
| 1777758409 | 19.44° C | 63% | 1012.1 hPa | 0 mm | - | 667 W/m² | - |
| 1777758106 | 18.89° C | 65% | 1012.5 hPa | 0 mm | - | 792 W/m² | - |
| 1777757803 | 20° C | 64% | 1012.3 hPa | 0 mm | - | 885 W/m² | - |
| 1777757500 | 19.44° C | 61% | 1012.3 hPa | 0 mm | - | 869 W/m² | - |
| 1777757199 | 18.89° C | 65% | 1012.5 hPa | 0 mm | - | 846 W/m² | - |
| 1777756897 | 17.78° C | 66% | 1012.3 hPa | 0 mm | - | 563 W/m² | - |
| 1777756592 | 17.78° C | 66% | 1012.3 hPa | 0 mm | - | 468 W/m² | - |
| 1777756289 | 18.33° C | 66% | 1012.7 hPa | 0 mm | - | 305 W/m² | - |
| 1777755987 | 17.78° C | 66% | 1012.5 hPa | 0 mm | - | 465 W/m² | - |
| 1777755684 | 18.33° C | 65% | 1012.9 hPa | 0 mm | - | 628 W/m² | - |
| 1777755380 | 18.33° C | 65% | 1012.6 hPa | 0 mm | - | 704 W/m² | - |
| 1777755077 | 17.22° C | 67% | 1012.9 hPa | 0 mm | - | 723 W/m² | - |
| 1777754774 | 17.22° C | 68% | 1012.9 hPa | 0 mm | - | 545 W/m² | - |
| 1777754472 | 18.33° C | 66% | 1012.9 hPa | 0 mm | - | 494 W/m² | - |
| 1777754169 | 17.22° C | 67% | 1013 hPa | 0 mm | - | 519 W/m² | - |
| 1777753866 | 17.22° C | 67% | 1013.1 hPa | 0 mm | - | 841 W/m² | - |
| 1777753561 | 16.67° C | 69% | 1013.2 hPa | 0 mm | - | 890 W/m² | - |
| 1777753260 | 17.78° C | 65% | 1013.4 hPa | 0 mm | - | 581 W/m² | - |
| 1777752955 | 18.33° C | 64% | 1013.6 hPa | 0 mm | - | 835 W/m² | - |
| 1777752652 | 18.89° C | 65% | 1013.4 hPa | 0 mm | - | 952 W/m² | - |
* Rain latest hour (hover to see other rain measurements)
** Current wind speed in m/s (hover to see current wind gust speed)